createdAt,value
2022-09-07T00:00:31.012Z,92.43
2022-09-07T00:01:31.033Z,93.03
2022-09-07T00:02:31.002Z,94.08
2022-09-07T00:03:31.028Z,94.79
2022-09-07T00:04:31.028Z,95.73
2022-09-07T00:05:30.939Z,96.54
2022-09-07T00:06:30.942Z,97.34
2022-09-07T00:07:30.921Z,97.49
2022-09-07T00:08:30.991Z,97.89
2022-09-07T00:09:30.889Z,98.39
2022-09-07T00:10:30.871Z,98.85
2022-09-07T00:11:30.853Z,99.45
2022-09-07T00:12:30.846Z,99.99
2022-09-07T00:13:30.848Z,99.99
2022-09-07T00:14:30.816Z,99.99
2022-09-07T00:15:30.796Z,99.99
2022-09-07T00:16:30.883Z,99.99
2022-09-07T00:17:30.787Z,99.99
2022-09-07T00:18:30.930Z,99.99
2022-09-07T00:19:30.742Z,99.99
2022-09-07T00:20:30.747Z,99.99
2022-09-07T00:21:30.719Z,99.99
2022-09-07T00:22:30.707Z,99.99
2022-09-07T00:23:30.684Z,99.99
2022-09-07T00:24:30.709Z,99.99
2022-09-07T00:25:32.027Z,99.99
2022-09-07T00:26:30.687Z,99.99
2022-09-07T00:27:30.639Z,99.99
2022-09-07T00:28:30.747Z,99.99
2022-09-07T00:29:30.611Z,99.99
2022-09-07T00:30:30.602Z,99.99
2022-09-07T00:31:30.692Z,99.99
2022-09-07T00:32:30.607Z,99.99
2022-09-07T00:33:30.552Z,99.99
2022-09-07T00:34:30.572Z,99.99
2022-09-07T00:35:30.555Z,99.99
2022-09-07T00:36:30.566Z,99.99
2022-09-07T00:37:30.525Z,99.99
2022-09-07T00:38:30.598Z,99.99
2022-09-07T00:39:30.572Z,99.99
2022-09-07T00:40:30.497Z,99.99
2022-09-07T00:41:30.464Z,99.99
2022-09-07T00:42:30.451Z,99.99
2022-09-07T00:43:30.421Z,99.99
2022-09-07T00:44:30.426Z,99.99
2022-09-07T00:45:30.432Z,99.99
2022-09-07T00:46:30.449Z,99.99
2022-09-07T00:47:30.377Z,99.99
2022-09-07T00:48:30.455Z,99.99
2022-09-07T00:49:30.349Z,99.99
2022-09-07T00:50:30.346Z,99.99
2022-09-07T00:51:30.347Z,99.99
2022-09-07T00:52:30.336Z,99.99
2022-09-07T00:53:30.318Z,99.99
2022-09-07T00:54:30.290Z,99.99
2022-09-07T00:55:30.285Z,99.99
2022-09-07T00:56:30.276Z,99.99
2022-09-07T00:57:30.261Z,99.99
2022-09-07T00:58:30.330Z,99.99
2022-09-07T00:59:30.296Z,99.99
2022-09-07T01:00:30.225Z,99.99
2022-09-07T01:01:30.296Z,99.99
2022-09-07T01:02:30.283Z,99.99
2022-09-07T01:03:30.210Z,99.99
2022-09-07T01:04:30.187Z,99.99
2022-09-07T01:05:30.164Z,99.99
2022-09-07T01:06:30.177Z,99.99
2022-09-07T01:07:30.106Z,99.99
2022-09-07T01:08:30.250Z,99.99
2022-09-07T01:09:30.082Z,99.99
2022-09-07T01:10:30.072Z,99.99
2022-09-07T01:11:30.053Z,99.99
2022-09-07T01:12:30.073Z,99.99
2022-09-07T01:13:30.052Z,99.99
2022-09-07T01:14:30.040Z,99.99
2022-09-07T01:15:29.999Z,99.99
2022-09-07T01:16:30.010Z,99.99
2022-09-07T01:17:29.960Z,99.99
2022-09-07T01:18:30.108Z,99.99
2022-09-07T01:19:29.961Z,99.99
2022-09-07T01:20:29.966Z,99.99
2022-09-07T01:21:29.908Z,99.99
2022-09-07T01:22:29.921Z,99.99
2022-09-07T01:23:29.892Z,99.99
2022-09-07T01:24:29.914Z,99.99
2022-09-07T01:25:29.860Z,99.99
2022-09-07T01:26:29.843Z,99.99
2022-09-07T01:27:29.853Z,99.99
2022-09-07T01:28:29.906Z,99.99
2022-09-07T01:29:29.885Z,99.99
2022-09-07T01:30:29.823Z,99.99
2022-09-07T01:31:29.857Z,99.99
2022-09-07T01:32:29.805Z,99.99
2022-09-07T01:33:29.781Z,99.99
2022-09-07T01:34:29.756Z,99.99
2022-09-07T01:35:29.736Z,99.99
2022-09-07T01:36:29.798Z,99.99
2022-09-07T01:37:29.695Z,99.99
2022-09-07T01:38:29.827Z,99.99
2022-09-07T01:39:29.748Z,99.99
2022-09-07T01:40:29.739Z,99.99
2022-09-07T01:41:29.659Z,99.99
2022-09-07T01:42:29.650Z,99.99
2022-09-07T01:43:29.633Z,99.99
2022-09-07T01:44:29.657Z,99.99
2022-09-07T01:45:29.599Z,99.99
2022-09-07T01:46:29.671Z,99.99
2022-09-07T01:47:29.569Z,99.99
2022-09-07T01:48:29.671Z,99.99
2022-09-07T01:49:29.557Z,99.99
2022-09-07T01:50:29.532Z,99.99
2022-09-07T01:51:29.516Z,99.99
2022-09-07T01:52:29.496Z,99.99
2022-09-07T01:53:29.493Z,99.99
2022-09-07T01:54:29.493Z,99.99
2022-09-07T01:55:29.472Z,99.99
2022-09-07T01:56:29.443Z,99.99
2022-09-07T01:57:29.443Z,99.99
2022-09-07T01:58:29.481Z,99.99
2022-09-07T01:59:29.412Z,99.99
2022-09-07T02:00:29.410Z,99.99
2022-09-07T02:01:29.402Z,99.99
2022-09-07T02:02:29.452Z,99.99
2022-09-07T02:03:29.382Z,99.99
2022-09-07T02:04:29.379Z,99.99
2022-09-07T02:05:29.368Z,99.99
2022-09-07T02:06:29.313Z,99.99
2022-09-07T02:07:29.316Z,99.99
2022-09-07T02:08:29.410Z,99.99
2022-09-07T02:09:29.259Z,99.99
2022-09-07T02:10:29.255Z,99.99
2022-09-07T02:11:29.238Z,99.99
2022-09-07T02:12:29.236Z,99.99
2022-09-07T02:13:29.201Z,99.99
2022-09-07T02:14:29.214Z,99.99
2022-09-07T02:15:29.218Z,99.99
2022-09-07T02:16:29.159Z,99.99
2022-09-07T02:17:29.159Z,99.99
2022-09-07T02:18:29.179Z,99.99
2022-09-07T02:19:29.126Z,99.99
2022-09-07T02:20:29.131Z,99.99
2022-09-07T02:21:29.089Z,99.99
2022-09-07T02:22:29.095Z,99.99
2022-09-07T02:23:29.105Z,99.99
2022-09-07T02:24:29.060Z,99.99
2022-09-07T02:25:29.049Z,99.99
2022-09-07T02:26:29.073Z,99.99
2022-09-07T02:27:29.018Z,99.99
2022-09-07T02:28:29.049Z,99.99
2022-09-07T02:29:30.986Z,99.99
2022-09-07T02:30:28.959Z,99.99
2022-09-07T02:31:29.039Z,99.99
2022-09-07T02:32:28.944Z,99.99
2022-09-07T02:33:28.939Z,99.99
2022-09-07T02:34:28.924Z,99.99
2022-09-07T02:35:28.907Z,99.99
2022-09-07T02:36:28.889Z,99.99
2022-09-07T02:37:28.990Z,99.99
2022-09-07T02:38:28.932Z,99.99
2022-09-07T02:39:28.872Z,99.99
2022-09-07T02:40:28.848Z,99.99
2022-09-07T02:41:28.822Z,99.99
2022-09-07T02:42:28.813Z,99.99
2022-09-07T02:43:28.840Z,99.99
2022-09-07T02:44:28.778Z,99.99
2022-09-07T02:45:28.793Z,99.99
2022-09-07T02:46:28.818Z,99.99
2022-09-07T02:47:28.763Z,99.99
2022-09-07T02:48:28.772Z,99.99
2022-09-07T02:49:28.711Z,99.99
2022-09-07T02:50:28.717Z,99.99
2022-09-07T02:51:28.687Z,99.99
2022-09-07T02:52:28.684Z,99.99
2022-09-07T02:53:28.678Z,99.99
2022-09-07T02:54:28.654Z,99.99
2022-09-07T02:55:28.635Z,99.99
2022-09-07T02:56:28.638Z,99.99
2022-09-07T02:57:28.606Z,99.99
2022-09-07T02:58:28.625Z,99.99
2022-09-07T02:59:28.573Z,99.99
2022-09-07T03:00:28.588Z,99.99
2022-09-07T03:01:28.626Z,99.99
2022-09-07T03:02:28.584Z,99.99
2022-09-07T03:03:28.556Z,99.99
2022-09-07T03:04:28.505Z,99.99
2022-09-07T03:05:28.517Z,99.99
2022-09-07T03:06:28.495Z,99.99
2022-09-07T03:07:28.497Z,99.99
2022-09-07T03:08:28.466Z,99.99
2022-09-07T03:09:28.453Z,99.99
2022-09-07T03:10:28.429Z,99.99
2022-09-07T03:11:28.436Z,99.99
2022-09-07T03:12:28.408Z,99.99
2022-09-07T03:13:28.416Z,99.99
2022-09-07T03:14:28.401Z,99.99
2022-09-07T03:15:28.440Z,99.99
2022-09-07T03:16:28.341Z,99.99
2022-09-07T03:17:28.327Z,99.99
2022-09-07T03:18:28.358Z,99.99
2022-09-07T03:19:28.306Z,99.99
2022-09-07T03:20:28.377Z,99.99
2022-09-07T03:21:28.277Z,99.99
2022-09-07T03:22:28.293Z,99.99
2022-09-07T03:23:28.325Z,99.99
2022-09-07T03:24:28.256Z,99.99
2022-09-07T03:25:28.227Z,99.99
2022-09-07T03:26:28.200Z,99.99
2022-09-07T03:27:28.205Z,99.99
2022-09-07T03:28:28.316Z,99.99
2022-09-07T03:29:28.199Z,99.99
2022-09-07T03:30:28.167Z,99.99
2022-09-07T03:31:28.187Z,99.99
2022-09-07T03:32:28.166Z,99.99
2022-09-07T03:33:28.104Z,99.99
2022-09-07T03:34:28.140Z,99.99
2022-09-07T03:35:28.109Z,99.99
2022-09-07T03:36:28.059Z,99.99
2022-09-07T03:37:28.051Z,99.99
2022-09-07T03:38:28.042Z,99.99
2022-09-07T03:39:28.088Z,99.99
2022-09-07T03:40:28.054Z,99.99
2022-09-07T03:41:28.060Z,99.99
2022-09-07T03:42:28.012Z,99.99
2022-09-07T03:43:27.963Z,99.99
2022-09-07T03:44:27.965Z,99.99
2022-09-07T03:45:28.006Z,99.99
2022-09-07T03:46:28.004Z,99.99
2022-09-07T03:47:27.926Z,99.99
2022-09-07T03:48:27.909Z,99.99
2022-09-07T03:49:27.893Z,99.99
2022-09-07T03:50:27.876Z,99.99
2022-09-07T03:51:27.923Z,99.99
2022-09-07T03:52:27.856Z,99.99
2022-09-07T03:53:27.882Z,99.99
2022-09-07T03:54:27.844Z,99.99
2022-09-07T03:55:27.832Z,99.99
2022-09-07T03:56:27.787Z,99.99
2022-09-07T03:57:27.786Z,99.99
2022-09-07T03:58:27.812Z,99.99
2022-09-07T03:59:27.777Z,99.99
2022-09-07T04:00:27.734Z,99.99
2022-09-07T04:01:27.792Z,99.99
2022-09-07T04:02:27.757Z,99.99
2022-09-07T04:03:27.709Z,99.99
2022-09-07T04:04:27.719Z,99.99
2022-09-07T04:05:27.690Z,99.99
2022-09-07T04:06:27.670Z,99.99
2022-09-07T04:07:27.639Z,99.99
2022-09-07T04:08:27.774Z,99.99
2022-09-07T04:09:27.626Z,99.99
2022-09-07T04:10:27.651Z,99.99
2022-09-07T04:11:27.591Z,99.99
2022-09-07T04:12:27.581Z,99.99
2022-09-07T04:13:27.571Z,99.99
2022-09-07T04:14:27.571Z,99.99
2022-09-07T04:15:27.533Z,99.99
2022-09-07T04:16:27.609Z,99.99
2022-09-07T04:17:27.536Z,99.99
2022-09-07T04:18:27.526Z,99.99
2022-09-07T04:19:27.487Z,99.99
2022-09-07T04:20:27.484Z,99.99
2022-09-07T04:21:27.504Z,99.99
2022-09-07T04:22:27.445Z,99.99
2022-09-07T04:23:27.416Z,99.99
2022-09-07T04:24:27.426Z,99.99
2022-09-07T04:25:27.415Z,99.99
2022-09-07T04:26:27.386Z,99.99
2022-09-07T04:27:27.415Z,99.99
2022-09-07T04:28:27.443Z,99.99
2022-09-07T04:29:27.356Z,99.99
2022-09-07T04:30:27.329Z,99.99
2022-09-07T04:31:27.426Z,99.99
2022-09-07T04:32:27.537Z,99.99
2022-09-07T04:33:27.287Z,99.99
2022-09-07T04:34:27.279Z,99.99
2022-09-07T04:35:27.293Z,99.99
2022-09-07T04:36:27.256Z,99.99
2022-09-07T04:37:27.239Z,99.99
2022-09-07T04:38:27.359Z,99.99
2022-09-07T04:39:27.250Z,99.99
2022-09-07T04:40:27.224Z,99.99
2022-09-07T04:41:27.200Z,99.99
2022-09-07T04:42:27.170Z,99.99
2022-09-07T04:43:27.162Z,99.99
2022-09-07T04:44:27.158Z,99.99
2022-09-07T04:45:27.131Z,99.99
2022-09-07T04:46:27.181Z,99.99
2022-09-07T04:47:27.106Z,99.99
2022-09-07T04:48:27.186Z,99.99
2022-09-07T04:49:27.082Z,99.99
2022-09-07T04:50:27.068Z,99.99
2022-09-07T04:51:27.051Z,99.99
2022-09-07T04:52:27.041Z,99.99
2022-09-07T04:53:27.012Z,99.99
2022-09-07T04:54:27.057Z,99.99
2022-09-07T04:55:27.006Z,99.99
2022-09-07T04:56:27.016Z,99.99
2022-09-07T04:57:26.986Z,99.99
2022-09-07T04:58:27.011Z,99.99
2022-09-07T04:59:26.961Z,99.99
2022-09-07T05:00:26.918Z,99.99
2022-09-07T05:01:26.960Z,99.99
2022-09-07T05:02:26.957Z,99.99
2022-09-07T05:03:26.897Z,99.99
2022-09-07T05:04:26.893Z,99.99
2022-09-07T05:05:26.881Z,99.99
2022-09-07T05:06:26.870Z,99.99
2022-09-07T05:07:26.868Z,99.99
2022-09-07T05:08:26.848Z,99.99
2022-09-07T05:09:26.823Z,99.99
2022-09-07T05:10:26.802Z,99.99
2022-09-07T05:11:29.529Z,99.99
2022-09-07T05:12:26.808Z,99.99
2022-09-07T05:13:26.754Z,99.99
2022-09-07T05:14:26.762Z,99.99
2022-09-07T05:15:26.748Z,99.99
2022-09-07T05:16:26.789Z,99.99
2022-09-07T05:17:26.711Z,99.99
2022-09-07T05:18:26.709Z,99.99
2022-09-07T05:19:26.699Z,99.99
2022-09-07T05:20:26.663Z,99.99
2022-09-07T05:21:26.669Z,99.99
2022-09-07T05:22:26.644Z,99.99
2022-09-07T05:23:26.630Z,99.99
2022-09-07T05:24:26.599Z,99.99
2022-09-07T05:25:26.610Z,99.99
2022-09-07T05:26:26.565Z,99.99
2022-09-07T05:27:26.565Z,99.99
2022-09-07T05:28:26.619Z,99.99
2022-09-07T05:31:27.589Z,99.99
2022-09-07T05:32:26.517Z,99.99
2022-09-07T05:35:26.469Z,99.99
2022-09-07T05:36:26.438Z,99.99
2022-09-07T05:37:26.452Z,99.99
2022-09-07T05:38:26.501Z,99.99
2022-09-07T05:39:26.454Z,99.99
2022-09-07T05:40:26.418Z,99.99
2022-09-07T05:41:26.386Z,99.99
2022-09-07T05:42:26.365Z,99.99
2022-09-07T05:43:26.355Z,99.99
2022-09-07T05:45:27.412Z,99.99
2022-09-07T05:46:26.305Z,99.99
2022-09-07T05:47:26.313Z,99.99
2022-09-07T05:48:26.321Z,99.99
2022-09-07T05:49:26.270Z,99.99
2022-09-07T05:50:26.252Z,99.99
2022-09-07T05:51:26.236Z,99.99
2022-09-07T05:52:26.217Z,99.99
2022-09-07T05:53:26.252Z,99.99
2022-09-07T05:54:26.202Z,99.99
2022-09-07T05:55:30.592Z,99.99
2022-09-07T05:56:26.195Z,99.99
2022-09-07T05:57:26.162Z,99.99
2022-09-07T05:58:26.147Z,99.99
2022-09-07T05:59:26.154Z,99.99
2022-09-07T06:00:26.135Z,99.99
2022-09-07T06:01:26.117Z,99.99
2022-09-07T06:02:26.176Z,99.99
2022-09-07T06:03:26.120Z,99.99
2022-09-07T06:04:26.047Z,99.99
2022-09-07T06:05:26.049Z,99.99
2022-09-07T06:06:26.032Z,99.99
2022-09-07T06:07:26.019Z,99.99
2022-09-07T06:08:26.005Z,99.99
2022-09-07T06:09:30.230Z,99.99
2022-09-07T06:11:26.994Z,99.99
2022-09-07T06:12:25.942Z,99.99
2022-09-07T06:13:25.997Z,99.99
2022-09-07T06:14:25.913Z,99.99
2022-09-07T06:15:25.912Z,99.99
2022-09-07T06:16:25.990Z,99.99
2022-09-07T06:17:25.946Z,99.99
2022-09-07T06:18:25.856Z,99.99
2022-09-07T06:19:25.851Z,99.99
2022-09-07T06:20:25.859Z,99.99
2022-09-07T06:21:25.829Z,99.99
2022-09-07T06:22:28.933Z,99.99
2022-09-07T06:23:26.853Z,99.99
2022-09-07T06:24:25.768Z,99.99
2022-09-07T06:25:25.786Z,99.99
2022-09-07T06:26:25.749Z,99.99
2022-09-07T06:27:25.738Z,99.99
2022-09-07T06:28:25.770Z,99.99
2022-09-07T06:29:25.732Z,99.99
2022-09-07T06:30:25.706Z,99.99
2022-09-07T06:31:25.746Z,99.99
2022-09-07T06:33:26.678Z,99.99
2022-09-07T06:34:25.646Z,99.99
2022-09-07T06:35:25.646Z,99.99
2022-09-07T06:36:25.632Z,99.99
2022-09-07T06:37:25.618Z,99.99
2022-09-07T06:38:28.789Z,99.99
2022-09-07T06:39:26.639Z,99.99
2022-09-07T06:40:25.607Z,99.99
2022-09-07T06:42:26.538Z,99.99
2022-09-07T06:43:25.584Z,99.99
2022-09-07T06:44:25.509Z,99.99
2022-09-07T06:45:25.587Z,99.99
2022-09-07T06:47:26.522Z,99.99
2022-09-07T06:48:25.479Z,99.99
2022-09-07T06:49:25.466Z,99.99
2022-09-07T06:50:25.467Z,99.99
2022-09-07T06:51:25.442Z,99.99
2022-09-07T06:52:25.443Z,99.99
2022-09-07T06:53:43.111Z,99.99
2022-09-07T06:55:26.371Z,99.99
2022-09-07T06:56:25.353Z,99.99
2022-09-07T06:57:25.338Z,99.99
2022-09-07T06:58:25.444Z,99.99
2022-09-07T06:59:25.323Z,99.99
2022-09-07T07:00:25.354Z,99.99
2022-09-07T07:01:25.317Z,99.99
2022-09-07T07:02:25.272Z,99.99
2022-09-07T07:03:25.322Z,99.99
2022-09-07T07:04:25.237Z,99.99
2022-09-07T07:05:25.229Z,99.99
2022-09-07T07:06:25.209Z,99.99
2022-09-07T07:07:25.248Z,99.99
2022-09-07T07:08:25.238Z,99.99
2022-09-07T07:09:25.195Z,99.99
2022-09-07T07:10:25.385Z,99.99
2022-09-07T07:11:25.137Z,99.99
2022-09-07T07:12:56.374Z,99.99
2022-09-07T07:13:56.360Z,99.99
2022-09-07T07:14:56.340Z,99.99
2022-09-07T07:15:56.364Z,99.99
2022-09-07T07:16:56.302Z,99.99
2022-09-07T07:18:05.136Z,99.99
2022-09-07T07:18:57.296Z,99.99
2022-09-07T07:19:56.276Z,99.99
2022-09-07T07:20:56.254Z,99.99
2022-09-07T07:22:57.233Z,99.99
2022-09-07T07:23:56.222Z,99.99
2022-09-07T07:24:56.218Z,99.99
2022-09-07T07:25:56.186Z,99.99
2022-09-07T07:26:56.179Z,99.99
2022-09-07T07:27:56.862Z,99.99
2022-09-07T07:29:56.146Z,99.99
2022-09-07T07:30:56.132Z,99.99
2022-09-07T07:31:56.107Z,99.99
2022-09-07T07:32:56.170Z,99.99
2022-09-07T07:33:56.174Z,99.99
2022-09-07T07:34:56.054Z,99.99
2022-09-07T07:35:56.073Z,99.99
2022-09-07T07:36:56.050Z,99.99
2022-09-07T07:42:00.064Z,99.99
2022-09-07T07:42:56.979Z,99.99
2022-09-07T07:43:55.978Z,99.99
2022-09-07T07:45:57.830Z,99.99
2022-09-07T07:46:55.952Z,99.99
2022-09-07T07:47:55.903Z,99.99
2022-09-07T07:48:55.882Z,99.99
2022-09-07T07:50:30.864Z,99.99
2022-09-07T07:50:56.857Z,99.99
2022-09-07T07:53:57.118Z,99.99
2022-09-07T07:54:55.843Z,99.99
2022-09-07T07:55:55.821Z,99.99
2022-09-07T07:56:55.789Z,99.99
2022-09-07T07:57:55.815Z,99.99
2022-09-07T07:58:55.747Z,99.99
2022-09-07T07:59:55.760Z,99.99
2022-09-07T08:00:56.511Z,99.99
2022-09-07T08:01:55.809Z,99.99
2022-09-07T08:02:55.688Z,99.99
2022-09-07T08:03:55.718Z,99.99
2022-09-07T08:04:55.682Z,99.99
2022-09-07T08:05:55.677Z,99.99
2022-09-07T08:06:55.650Z,99.99
2022-09-07T08:07:55.635Z,99.99
2022-09-07T08:08:55.632Z,99.99
2022-09-07T08:09:55.619Z,99.99
2022-09-07T08:10:55.599Z,99.99
2022-09-07T08:11:55.601Z,99.99
2022-09-07T08:12:55.571Z,99.99
2022-09-07T08:13:55.541Z,99.99
2022-09-07T08:14:55.544Z,99.99
2022-09-07T08:15:55.547Z,99.99
2022-09-07T08:16:55.502Z,99.99
2022-09-07T08:17:55.504Z,99.99
2022-09-07T08:18:55.490Z,99.99
2022-09-07T08:19:55.498Z,99.99
2022-09-07T08:20:55.464Z,99.99
2022-09-07T08:21:55.448Z,99.99
2022-09-07T08:22:55.444Z,99.99
2022-09-07T08:23:55.424Z,99.99
2022-09-07T08:24:55.429Z,99.99
2022-09-07T08:25:55.400Z,99.99
2022-09-07T08:26:55.364Z,99.99
2022-09-07T08:27:55.366Z,99.99
2022-09-07T08:28:55.371Z,99.99
2022-09-07T08:29:55.335Z,99.99
2022-09-07T08:30:55.337Z,99.99
2022-09-07T08:31:55.351Z,99.99
2022-09-07T08:32:55.304Z,99.99
2022-09-07T08:33:55.297Z,99.99
2022-09-07T08:34:55.297Z,99.99
2022-09-07T08:35:55.275Z,99.99
2022-09-07T08:36:55.255Z,99.99
2022-09-07T08:37:55.282Z,99.99
2022-09-07T08:38:55.240Z,99.99
2022-09-07T08:39:55.288Z,99.99
2022-09-07T08:40:55.209Z,99.99
2022-09-07T08:41:55.224Z,99.99
2022-09-07T08:42:55.149Z,99.99
2022-09-07T08:43:55.154Z,99.99
2022-09-07T08:44:55.179Z,99.99
2022-09-07T08:45:55.172Z,99.99
2022-09-07T08:46:55.167Z,99.99
2022-09-07T08:47:55.115Z,99.99
2022-09-07T08:48:55.115Z,99.99
2022-09-07T08:49:55.086Z,99.99
2022-09-07T08:50:55.087Z,99.99
2022-09-07T08:51:55.072Z,99.99
2022-09-07T08:52:55.030Z,99.99
2022-09-07T08:53:55.038Z,99.99
2022-09-07T08:54:55.019Z,99.99
2022-09-07T08:55:54.987Z,99.99
2022-09-07T08:57:55.979Z,99.99
2022-09-07T08:58:54.958Z,99.99
2022-09-07T08:59:54.985Z,99.99
2022-09-07T09:01:30.737Z,99.99
2022-09-07T09:05:55.991Z,99.99
2022-09-07T09:06:54.947Z,99.99
2022-09-07T09:07:54.837Z,99.99
2022-09-07T09:08:54.825Z,99.99
2022-09-07T09:09:54.801Z,99.99
2022-09-07T09:10:54.798Z,99.99
2022-09-07T09:12:03.485Z,99.99
2022-09-07T09:12:54.777Z,99.99
2022-09-07T09:14:03.521Z,99.99
2022-09-07T09:14:54.737Z,99.99
2022-09-07T09:15:54.774Z,99.99
2022-09-07T09:16:54.698Z,99.99
2022-09-07T09:17:54.823Z,99.99
2022-09-07T09:18:54.666Z,99.99
2022-09-07T09:19:54.690Z,99.99
2022-09-07T09:20:54.652Z,99.99
2022-09-07T09:21:54.645Z,99.99
2022-09-07T09:22:54.665Z,99.99
2022-09-07T09:23:54.628Z,99.99
2022-09-07T09:24:54.863Z,99.99
2022-09-07T09:25:54.583Z,99.99
2022-09-07T09:26:54.606Z,99.99
2022-09-07T09:27:54.570Z,99.99
2022-09-07T09:28:54.592Z,99.99
2022-09-07T09:29:54.514Z,99.99
2022-09-07T09:30:54.650Z,99.99
2022-09-07T09:31:54.515Z,99.99
2022-09-07T09:32:54.476Z,99.99
2022-09-07T09:33:54.523Z,99.99
2022-09-07T09:34:54.451Z,99.99
2022-09-07T09:35:54.457Z,99.99
2022-09-07T09:36:54.420Z,99.99
2022-09-07T09:37:54.418Z,99.99
2022-09-07T09:38:54.426Z,99.99
2022-09-07T09:39:55.512Z,99.99
2022-09-07T09:40:54.389Z,99.99
2022-09-07T09:41:54.358Z,99.99
2022-09-07T09:42:54.338Z,99.99
2022-09-07T09:43:54.326Z,99.99
2022-09-07T09:44:54.349Z,99.99
2022-09-07T09:47:55.314Z,99.99
2022-09-07T09:48:54.266Z,99.99
2022-09-07T09:49:54.283Z,99.99
2022-09-07T09:52:55.242Z,99.99
2022-09-07T09:53:54.194Z,99.99
2022-09-07T09:54:55.830Z,99.99
2022-09-07T09:55:54.226Z,99.99
2022-09-07T09:56:54.173Z,99.99
2022-09-07T09:59:57.455Z,99.99
2022-09-07T10:03:55.701Z,99.99
2022-09-07T10:04:54.087Z,99.99
2022-09-07T10:05:54.057Z,99.99
2022-09-07T10:06:54.089Z,99.99
2022-09-07T10:07:54.023Z,99.99
2022-09-07T10:08:53.998Z,99.99
2022-09-07T10:09:54.006Z,99.99
2022-09-07T10:10:54.007Z,99.99
2022-09-07T10:12:09.578Z,99.99
2022-09-07T10:12:54.966Z,99.99
2022-09-07T10:13:53.938Z,99.99
2022-09-07T10:14:53.921Z,99.99
2022-09-07T10:15:54.047Z,99.99
2022-09-07T10:16:53.999Z,99.99
2022-09-07T10:17:53.921Z,99.02
2022-09-07T10:18:53.901Z,97.97
2022-09-07T10:19:53.876Z,99.33
2022-09-07T10:20:53.851Z,99.33
2022-09-07T10:21:53.852Z,98.43
2022-09-07T10:22:53.852Z,98.28
2022-09-07T10:23:53.990Z,96.77
2022-09-07T10:24:53.798Z,98.33
2022-09-07T10:25:53.807Z,97.23
2022-09-07T10:26:53.777Z,98.33
2022-09-07T10:27:53.824Z,95.93
2022-09-07T10:29:09.758Z,96.13
2022-09-07T10:29:54.741Z,97.33
2022-09-07T10:30:53.772Z,97.43
2022-09-07T10:31:53.706Z,98.28
2022-09-07T10:32:53.718Z,97.28
2022-09-07T10:34:54.681Z,98.28
2022-09-07T10:35:53.629Z,96.17
2022-09-07T10:36:53.622Z,97.47
2022-09-07T10:37:53.619Z,97.52
2022-09-07T10:38:53.663Z,97.82
2022-09-07T10:39:58.186Z,97.58
2022-09-07T10:40:54.629Z,94.51
2022-09-07T10:41:53.550Z,97.02
2022-09-07T10:43:54.563Z,95.42
2022-09-07T10:44:53.512Z,94.27
2022-09-07T10:45:53.597Z,95.47
2022-09-07T10:46:57.171Z,96.58
2022-09-07T10:47:53.482Z,93.37
2022-09-07T10:48:53.483Z,93.62
2022-09-07T10:50:54.434Z,93.77
2022-09-07T10:51:53.436Z,93.97
2022-09-07T10:52:53.502Z,94.82
2022-09-07T10:54:54.439Z,94.73
2022-09-07T10:55:53.552Z,95.23
2022-09-07T10:56:53.418Z,93.73
2022-09-07T10:57:53.372Z,93.18
2022-09-07T10:59:08.642Z,92.48
2022-09-07T11:00:10.359Z,93.24
2022-09-07T11:00:54.366Z,90.53
2022-09-07T11:01:53.356Z,90.03
2022-09-07T11:03:54.431Z,91.03
2022-09-07T11:04:53.441Z,89.89
2022-09-07T11:05:53.864Z,89.89
2022-09-07T11:06:53.233Z,88.29
2022-09-07T11:07:53.214Z,90.69
2022-09-07T11:09:54.245Z,91.09
2022-09-07T11:10:53.213Z,89.89
2022-09-07T11:12:01.150Z,90.79
2022-09-07T11:12:54.143Z,89.99
2022-09-07T11:14:12.183Z,91.39
2022-09-07T11:14:54.183Z,89.03
2022-09-07T11:15:53.110Z,89.94
2022-09-07T11:16:53.243Z,90.53
2022-09-07T11:17:53.457Z,89.03
2022-09-07T11:19:34.185Z,89.23
2022-09-07T11:19:54.085Z,90.44
2022-09-07T11:20:53.056Z,91.99
2022-09-07T11:21:56.503Z,91.09
2022-09-07T11:22:53.028Z,90.89
2022-09-07T11:23:53.016Z,91.79
2022-09-07T11:25:54.034Z,88.19
2022-09-07T11:26:52.949Z,90.19
2022-09-07T11:27:52.939Z,88.59
2022-09-07T11:29:53.943Z,89.79
2022-09-07T11:30:56.609Z,93.09
2022-09-07T11:31:53.890Z,91.63
2022-09-07T11:32:52.873Z,90.23
2022-09-07T11:34:53.865Z,90.33
2022-09-07T11:35:52.853Z,90.59
2022-09-07T11:36:52.862Z,91.09
2022-09-07T11:37:52.809Z,89.39
2022-09-07T11:38:52.783Z,91.64
2022-09-07T11:39:52.851Z,91.00
2022-09-07T11:40:52.789Z,86.31
2022-09-07T11:41:52.768Z,84.57
2022-09-07T11:42:52.742Z,89.36
2022-09-07T11:43:52.754Z,88.17
2022-09-07T11:44:52.802Z,85.77
2022-09-07T11:45:52.761Z,84.17
2022-09-07T11:46:52.688Z,84.83
2022-09-07T11:47:52.687Z,81.93
2022-09-07T11:48:52.697Z,82.34
2022-09-07T11:49:56.044Z,83.43
2022-09-07T11:50:53.678Z,82.03
2022-09-07T11:51:53.992Z,81.34
2022-09-07T11:52:53.923Z,81.54
2022-09-07T11:53:52.599Z,82.64
2022-09-07T11:54:52.690Z,82.34
2022-09-07T11:55:52.626Z,81.37
2022-09-07T11:56:52.673Z,81.98
2022-09-07T11:57:55.458Z,83.73
2022-09-07T11:58:52.530Z,83.89
2022-09-07T11:59:52.532Z,82.65
2022-09-07T12:00:52.523Z,81.12
2022-09-07T12:01:52.484Z,80.88
2022-09-07T12:03:00.741Z,81.28
2022-09-07T12:03:53.568Z,79.15
2022-09-07T12:04:56.186Z,79.94
2022-09-07T12:05:52.458Z,76.36
2022-09-07T12:06:52.456Z,77.06
2022-09-07T12:07:52.528Z,77.16
2022-09-07T12:08:52.475Z,75.76
2022-09-07T12:09:52.396Z,77.36
2022-09-07T12:10:52.362Z,77.26
2022-09-07T12:11:52.346Z,77.56
2022-09-07T12:12:52.350Z,76.76
2022-09-07T12:13:52.315Z,75.50
2022-09-07T12:14:52.437Z,75.94
2022-09-07T12:15:52.419Z,76.83
2022-09-07T12:16:52.482Z,75.74
2022-09-07T12:17:52.324Z,75.14
2022-09-07T12:18:52.632Z,75.94
2022-09-07T12:19:52.259Z,76.50
2022-09-07T12:20:52.313Z,75.10
2022-09-07T12:21:52.247Z,75.53
2022-09-07T12:22:52.252Z,75.13
2022-09-07T12:23:52.216Z,73.94
2022-09-07T12:24:52.261Z,73.94
2022-09-07T12:25:52.204Z,73.04
2022-09-07T12:26:52.203Z,72.91
2022-09-07T12:27:52.179Z,74.66
2022-09-07T12:28:52.218Z,71.55
2022-09-07T12:29:52.145Z,71.55
2022-09-07T12:30:52.188Z,71.18
2022-09-07T12:32:07.628Z,70.12
2022-09-07T12:32:54.321Z,67.71
2022-09-07T12:33:52.056Z,66.91
2022-09-07T12:34:52.313Z,67.18
2022-09-07T12:35:52.022Z,68.53
2022-09-07T12:36:52.089Z,71.15
2022-09-07T12:37:52.020Z,73.86
2022-09-07T12:38:52.038Z,73.11
2022-09-07T12:39:52.018Z,75.59
2022-09-07T12:40:52.007Z,74.00
2022-09-07T12:42:31.798Z,72.41
2022-09-07T12:42:52.952Z,72.11
2022-09-07T12:43:52.031Z,71.61
2022-09-07T12:44:51.991Z,73.14
2022-09-07T12:45:52.028Z,75.05
2022-09-07T12:46:51.894Z,71.37
2022-09-07T12:47:51.902Z,68.83
2022-09-07T12:48:51.862Z,68.17
2022-09-07T12:49:51.902Z,63.19
2022-09-07T12:50:51.892Z,63.59
2022-09-07T12:52:00.243Z,62.87
2022-09-07T12:52:52.833Z,63.09
2022-09-07T12:53:56.946Z,62.99
2022-09-07T12:55:10.053Z,64.48
2022-09-07T12:57:52.776Z,66.35
2022-09-07T12:58:51.754Z,67.71
2022-09-07T12:59:51.739Z,70.75
2022-09-07T13:00:51.747Z,70.12
2022-09-07T13:01:51.913Z,69.95
2022-09-07T13:02:52.740Z,68.80
2022-09-07T13:04:05.140Z,70.02
2022-09-07T13:04:52.807Z,69.66
2022-09-07T13:05:52.342Z,70.12
2022-09-07T13:07:07.091Z,70.15
2022-09-07T13:07:55.798Z,68.66
2022-09-07T13:08:52.766Z,70.85
2022-09-07T13:09:52.045Z,69.76
2022-09-07T13:10:51.996Z,69.59
2022-09-07T13:11:51.592Z,69.13
2022-09-07T13:12:53.296Z,70.06
2022-09-07T13:14:09.348Z,70.59
2022-09-07T13:14:53.020Z,71.38
2022-09-07T13:15:51.636Z,71.72
2022-09-07T13:17:52.528Z,71.28
2022-09-07T13:18:52.469Z,70.19
2022-09-07T13:19:51.616Z,68.99
2022-09-07T13:20:51.773Z,67.61
2022-09-07T13:21:51.457Z,65.46
2022-09-07T13:22:51.506Z,65.86
2022-09-07T13:23:51.438Z,66.09
2022-09-07T13:24:51.919Z,65.01
2022-09-07T13:25:51.450Z,63.95
2022-09-07T13:26:51.726Z,62.96
2022-09-07T13:27:51.506Z,64.64
2022-09-07T13:28:51.355Z,65.30
2022-09-07T13:29:51.355Z,65.06
2022-09-07T13:30:51.346Z,69.32
2022-09-07T13:32:05.001Z,67.47
2022-09-07T13:33:14.317Z,67.31
2022-09-07T13:33:52.326Z,70.68
2022-09-07T13:34:51.313Z,62.96
2022-09-07T13:35:51.331Z,61.44
2022-09-07T13:36:51.338Z,61.71
2022-09-07T13:37:51.321Z,60.55